Lake Hopatcong, New Jersey
Current Conditions -  °F | °C
As of 12:53 AM on Saturday 29 Nov 2014 (Local Time) from KFWN Reporting Station
Scattered Clouds Scattered Clouds  
Wind Chill: 13°   Ceiling: Unl
Heat Index: 13°   Visibility: 10mi
Dew Point: 11°   Wind: 0mph
Humidity: 92%   Direction: NA
Pressure: 30.26"   Gusts: NA
Location:  40.95°N, 74.62°W
Report Text: KFWN 290553Z AUTO 00000KT 10SM SCT110 M11/M12 A3026 RMK AO2 SLP252 T11061117 11061 21111 53001
Loading
Personal Weather Stations






























Interactive Weather Map New forecast layout! Learn more

10-Day Weather Forecast

Advertisements
Track Severe Weather on mobile